Lexington, KY

12:52 PM EDT on April 26, 2015 (GMT -0400)
Richmond | | Change Station
CLOSE
Current Station
Airport
Location: Richmond,
Elevation: 1001 ft
Nearby Weather Stations

Elev 1001 ft 37.63 °N, 84.33 °W | Updated 37 minutes ago

Overcast
Overcast
50 °F
Feels Like 50 °F
N
5
Wind Variable Wind from NNE

Today
High -- | Low -- °F
--% Chance of Precip.
Yesterday
High -- | Low -- °F
Precip. -- in
6:48 AM 8:23 PM
First Quarter, 57% visible
Pressure 29.81 in
Visibility 10.0 miles
Clouds Scattered Clouds 2000 ft
Overcast 10000 ft
Dew Point 39 °F
Humidity 66%
Rainfall 0.00 in
Snow Depth Not available.
UV 3 out of 12
Pollen 7.50 out of 12
Air Quality Not available.
Flu Activity Local Activity
METAR KI39 261615Z AUTO 02004KT 10SM SCT020 OVC100 10/04 A2981 RMK AO2

More Conditions Fewer Conditions

Pressure 29.81 in
Visibility 10.0 miles
Clouds Scattered Clouds 2000 ft
Overcast 10000 ft
Dew Point 39 °F
Humidity 66%
Rainfall 0.00 in
Snow Depth Not available.
UV 3 out of 12
Pollen 7.50 out of 12
Air Quality Not available.
Flu Activity Local Activity
METAR KI39 261615Z AUTO 02004KT 10SM SCT020 OVC100 10/04 A2981 RMK AO2

More Conditions Fewer Conditions

The full scope of the disaster following a powerful 7.8-magnitude earthquake in Nepal may not come into view for days, but global charities are already sending emergency aid. Click to see how you can help.

10-Day Weather Forecast

Almanac

Astronomy

Apr. 26, 2015 Rise Set
Actual Time
Civil Twilight
Nautical Twilight
Astronomical Twilight
Moon
Length of Visible Light
Length of Day
Tomorrow will be .
, % of the Moon is Illuminated

Today's Extremes

State Highs State Lows

Community

WunderPhotos

Upload Photos

1,817,054 photos uploaded!

WunderBlogs® & News

Nearby

Air Quality

  Air Quality AQ Index Pollutant
Not available.

Snow Depth

Station Depth Elevation

Earthquake Activity

City Distance Mag. Time & Date
Minimum magnitude displayed is 2.5.

Coastal Water Temperatures

Place Temperature

Stations

Nearby Weather Stations

Station Location Temp. Windchill Dew Point Humidity Wind Precip. Elev Updated Type